Time;durP1;ratioP1;P1;durP2;ratioP2;P2;SDS_P1;SDS_P2;PMS_P1;PMS_P2;Temp;Humidity;BMP_temperature;BMP_pressure;BME280_temperature;BME280_humidity;BME280_pressure;Samples;Min_cycle;Max_cycle;Signal;HPM_P1;HPM_P2
2021/06/24 00:00:46;;;;;;;2.42;2.22;;;23.90;45.90;;;;;;5010824;28;20081;-63
2021/06/24 00:03:12;;;;;;;3.88;2.50;;;23.80;45.40;;;;;;5019556;28;20045;-63
2021/06/24 00:05:39;;;;;;;4.10;2.05;;;23.90;45.60;;;;;;5035479;28;20038;-63
2021/06/24 00:08:05;;;;;;;2.55;2.22;;;23.90;45.30;;;;;;5035994;28;20065;-63
2021/06/24 00:10:31;;;;;;;3.22;1.90;;;23.90;45.60;;;;;;5016180;28;20037;-63
2021/06/24 00:12:56;;;;;;;3.83;2.35;;;23.80;45.80;;;;;;5019000;28;20511;-56
2021/06/24 00:15:22;;;;;;;8.32;2.47;;;23.70;45.80;;;;;;4999532;28;20052;-64
2021/06/24 00:17:48;;;;;;;2.45;2.05;;;23.80;45.20;;;;;;5046470;28;20034;-63
2021/06/24 00:20:14;;;;;;;3.78;2.30;;;23.80;45.80;;;;;;5015828;28;20077;-63
2021/06/24 00:22:39;;;;;;;3.20;2.33;;;23.70;46.10;;;;;;5020739;28;20042;-63
2021/06/24 00:25:06;;;;;;;3.88;2.15;;;23.70;46.00;;;;;;5016774;28;20399;-62
2021/06/24 00:27:32;;;;;;;3.80;1.90;;;23.70;46.10;;;;;;5004342;28;20348;-63
2021/06/24 00:29:57;;;;;;;2.33;1.85;;;23.70;45.90;;;;;;5016669;28;20033;-63
2021/06/24 00:32:23;;;;;;;3.75;1.90;;;23.70;45.90;;;;;;5017206;28;20053;-64
2021/06/24 00:34:48;;;;;;;6.20;2.00;;;23.60;45.90;;;;;;5018911;28;20030;-64
2021/06/24 00:37:14;;;;;;;3.20;2.03;;;23.70;46.10;;;;;;5030002;28;20123;-64
2021/06/24 00:39:40;;;;;;;3.20;2.45;;;23.70;46.00;;;;;;5022168;28;20053;-64
2021/06/24 00:42:07;;;;;;;4.90;2.17;;;23.60;46.40;;;;;;5017062;28;20124;-63
2021/06/24 00:44:32;;;;;;;4.38;3.08;;;23.50;46.70;;;;;;5022781;28;20049;-63
2021/06/24 00:46:58;;;;;;;3.33;1.85;;;23.50;47.10;;;;;;5017066;28;20093;-62
2021/06/24 00:49:24;;;;;;;4.18;2.13;;;23.50;46.70;;;;;;5020159;28;20034;-62
2021/06/24 00:51:49;;;;;;;3.25;2.10;;;23.40;46.90;;;;;;5008541;28;20172;-63
2021/06/24 00:54:15;;;;;;;3.00;2.20;;;23.50;47.10;;;;;;5018381;28;20029;-63
2021/06/24 00:56:40;;;;;;;3.42;2.38;;;23.50;47.10;;;;;;5017140;28;20748;-64
2021/06/24 00:59:06;;;;;;;2.75;2.55;;;23.40;46.80;;;;;;5023802;28;20052;-62
2021/06/24 01:01:33;;;;;;;2.83;1.90;;;23.50;46.80;;;;;;5026003;28;20030;-63
2021/06/24 01:03:59;;;;;;;4.45;2.50;;;23.50;46.70;;;;;;5016248;28;20065;-63
2021/06/24 01:06:25;;;;;;;4.80;2.13;;;23.40;46.90;;;;;;5022688;28;20046;-63
2021/06/24 01:08:50;;;;;;;3.28;2.17;;;23.40;47.50;;;;;;5008417;28;20050;-64
2021/06/24 01:11:17;;;;;;;5.55;2.60;;;23.40;47.40;;;;;;5011757;28;20102;-64
2021/06/24 01:13:45;;;;;;;7.93;1.95;;;23.50;47.20;;;;;;5021384;28;20099;-64
2021/06/24 01:16:11;;;;;;;4.05;2.00;;;23.50;46.90;;;;;;5022681;28;20112;-63
2021/06/24 01:18:36;;;;;;;2.92;2.20;;;23.40;47.40;;;;;;5014607;28;20117;-64
2021/06/24 01:21:04;;;;;;;2.95;2.03;;;23.40;47.10;;;;;;5004902;28;20065;-63
2021/06/24 01:23:40;;;;;;;4.13;2.33;;;23.40;46.80;;;;;;5017056;28;20037;-62
2021/06/24 01:26:06;;;;;;;2.72;1.98;;;23.50;46.60;;;;;;5021952;28;20186;-63
2021/06/24 01:28:32;;;;;;;5.13;2.22;;;23.40;47.00;;;;;;5015847;28;20033;-64
2021/06/24 01:30:57;;;;;;;2.88;2.28;;;23.40;47.10;;;;;;5010370;28;20109;-60
2021/06/24 01:33:24;;;;;;;3.45;2.40;;;23.30;47.30;;;;;;5009130;28;20383;-64
2021/06/24 01:35:58;;;;;;;5.25;2.35;;;23.40;47.50;;;;;;5037623;28;20072;-64
2021/06/24 01:38:24;;;;;;;2.10;1.85;;;23.40;47.30;;;;;;5015720;28;20473;-64
2021/06/24 01:40:50;;;;;;;2.47;2.08;;;23.40;47.00;;;;;;5024619;28;20076;-63
2021/06/24 01:43:15;;;;;;;4.20;2.33;;;23.40;47.00;;;;;;5023857;28;20064;-64
2021/06/24 01:45:49;;;;;;;2.38;2.17;;;23.40;46.90;;;;;;5016063;28;20068;-63
2021/06/24 01:48:14;;;;;;;3.95;2.15;;;23.30;48.10;;;;;;5025108;28;20108;-63
2021/06/24 01:50:41;;;;;;;10.07;2.70;;;23.30;47.40;;;;;;5018986;28;20117;-63
2021/06/24 01:53:07;;;;;;;4.80;2.50;;;23.30;47.40;;;;;;5020284;28;20041;-62
2021/06/24 01:55:33;;;;;;;3.83;2.15;;;23.30;47.30;;;;;;5020565;28;20121;-62
2021/06/24 01:58:05;;;;;;;3.95;2.47;;;23.20;47.60;;;;;;5023217;28;20426;-63
2021/06/24 02:00:31;;;;;;;3.45;2.83;;;23.20;47.80;;;;;;5017537;28;20045;-61
2021/06/24 02:02:57;;;;;;;3.22;2.35;;;23.20;47.80;;;;;;5034852;28;20125;-63
2021/06/24 02:05:23;;;;;;;5.22;2.38;;;23.20;47.60;;;;;;5005031;28;20125;-63
2021/06/24 02:07:49;;;;;;;4.72;2.40;;;23.20;47.60;;;;;;5024159;28;20124;-63
2021/06/24 02:10:16;;;;;;;3.03;2.30;;;23.20;47.80;;;;;;5008127;28;20041;-63
2021/06/24 02:12:42;;;;;;;6.30;2.22;;;23.20;47.90;;;;;;5023315;28;20099;-63
2021/06/24 02:15:10;;;;;;;3.08;2.45;;;23.10;48.00;;;;;;5021055;28;20433;-63
2021/06/24 02:17:36;;;;;;;2.30;2.20;;;23.10;48.10;;;;;;5022352;28;20495;-64
2021/06/24 02:20:08;;;;;;;2.97;2.30;;;23.10;48.10;;;;;;5009864;28;20037;-63
2021/06/24 02:22:34;;;;;;;5.13;2.22;;;23.10;47.80;;;;;;5016326;28;20132;-64
2021/06/24 02:24:59;;;;;;;2.20;1.98;;;23.10;47.90;;;;;;5019139;28;20362;-63
2021/06/24 02:27:25;;;;;;;5.03;2.20;;;23.10;48.10;;;;;;5007690;28;20065;-63
2021/06/24 02:29:51;;;;;;;4.32;2.30;;;23.10;47.80;;;;;;5023730;28;20068;-63
2021/06/24 02:32:17;;;;;;;7.45;2.70;;;23.10;48.20;;;;;;5022945;28;20060;-65
2021/06/24 02:34:46;;;;;;;3.95;2.35;;;23.00;48.40;;;;;;5021664;28;20514;-63
2021/06/24 02:37:11;;;;;;;2.75;2.10;;;23.00;48.80;;;;;;5019305;28;20038;-64
2021/06/24 02:39:37;;;;;;;3.53;1.75;;;23.00;48.80;;;;;;5038309;28;20158;-62
2021/06/24 02:42:03;;;;;;;4.43;2.20;;;23.00;48.60;;;;;;5015704;28;20057;-63
2021/06/24 02:44:29;;;;;;;3.53;2.10;;;23.00;49.00;;;;;;5014170;28;20658;-62
2021/06/24 02:46:55;;;;;;;3.15;2.40;;;22.90;49.00;;;;;;5015161;28;20033;-64
2021/06/24 02:49:20;;;;;;;3.70;1.98;;;22.90;49.10;;;;;;5024615;28;20046;-64
2021/06/24 02:51:47;;;;;;;2.65;2.25;;;22.80;49.10;;;;;;5015039;28;20034;-64
2021/06/24 02:54:13;;;;;;;3.25;2.47;;;22.90;49.30;;;;;;5021999;28;20399;-63
2021/06/24 02:56:40;;;;;;;3.67;2.10;;;22.80;49.10;;;;;;5014399;28;20033;-63
2021/06/24 02:59:06;;;;;;;2.72;2.53;;;22.80;48.90;;;;;;5015999;28;20074;-63
2021/06/24 03:01:32;;;;;;;3.70;2.10;;;22.80;48.90;;;;;;5009235;28;20432;-63
2021/06/24 03:03:57;;;;;;;3.15;2.05;;;22.80;49.40;;;;;;5019990;28;20053;-64
2021/06/24 03:06:23;;;;;;;3.17;2.03;;;22.80;49.50;;;;;;5024587;28;20058;-63
2021/06/24 03:08:50;;;;;;;3.17;2.17;;;22.80;49.50;;;;;;5022708;28;20053;-64
2021/06/24 03:11:16;;;;;;;5.30;2.05;;;22.80;49.70;;;;;;5014890;28;20496;-63
2021/06/24 03:13:41;;;;;;;2.83;2.08;;;22.80;49.00;;;;;;5005568;28;20141;-63
2021/06/24 03:16:07;;;;;;;3.83;2.38;;;22.80;49.20;;;;;;5023931;28;20069;-63
2021/06/24 03:18:33;;;;;;;4.35;2.15;;;22.90;49.10;;;;;;5016162;28;20053;-63
2021/06/24 03:20:59;;;;;;;4.38;2.30;;;22.80;49.60;;;;;;5052303;28;20037;-63
2021/06/24 03:23:24;;;;;;;3.20;2.33;;;22.80;49.60;;;;;;5008447;28;20034;-63
2021/06/24 03:25:52;;;;;;;3.25;2.30;;;22.80;49.80;;;;;;5008505;28;20046;-63
2021/06/24 03:28:18;;;;;;;5.28;2.95;;;22.80;49.50;;;;;;4989359;28;20042;-63
2021/06/24 03:30:44;;;;;;;3.95;2.22;;;22.80;49.60;;;;;;5014196;28;20360;-64
2021/06/24 03:33:11;;;;;;;3.15;2.28;;;22.70;49.10;;;;;;5013998;28;20041;-62
2021/06/24 03:35:36;;;;;;;4.53;2.67;;;22.70;49.30;;;;;;5024020;28;20037;-64
2021/06/24 03:38:03;;;;;;;3.97;2.10;;;22.70;49.60;;;;;;5016331;28;20033;-64
2021/06/24 03:40:28;;;;;;;4.63;2.55;;;22.60;50.00;;;;;;5019051;28;20042;-63
2021/06/24 03:42:54;;;;;;;2.63;2.42;;;22.70;49.90;;;;;;5015550;28;20045;-63
2021/06/24 03:45:20;;;;;;;3.95;2.35;;;22.70;49.40;;;;;;5002923;28;20041;-63
2021/06/24 03:47:46;;;;;;;2.80;2.40;;;22.70;50.20;;;;;;5019628;28;20045;-63
2021/06/24 03:50:12;;;;;;;3.40;2.67;;;22.70;50.20;;;;;;5017080;28;20044;-63
2021/06/24 03:52:38;;;;;;;3.03;2.22;;;22.70;50.40;;;;;;5021776;28;20091;-63
2021/06/24 03:55:05;;;;;;;3.25;2.15;;;22.70;50.50;;;;;;5015580;28;20041;-63
2021/06/24 03:57:31;;;;;;;5.00;2.50;;;22.70;50.90;;;;;;5019170;28;20042;-63
2021/06/24 03:59:57;;;;;;;5.38;3.00;;;22.70;50.80;;;;;;5010805;28;20042;-64
2021/06/24 04:02:23;;;;;;;5.40;2.47;;;22.70;51.00;;;;;;5016225;28;20526;-63
2021/06/24 04:04:49;;;;;;;7.35;3.35;;;22.80;51.50;;;;;;5008329;28;20116;-63
2021/06/24 04:07:15;;;;;;;7.05;3.15;;;22.70;51.40;;;;;;5020848;28;20140;-63
2021/06/24 04:09:40;;;;;;;3.63;2.80;;;22.70;51.60;;;;;;5019532;28;20499;-63
2021/06/24 04:12:07;;;;;;;7.00;3.25;;;22.70;51.90;;;;;;5018547;28;20117;-62
2021/06/24 04:14:32;;;;;;;3.80;2.40;;;22.60;51.90;;;;;;5007574;28;20527;-62
2021/06/24 04:16:58;;;;;;;5.25;2.50;;;22.70;52.00;;;;;;5020138;28;20121;-63
2021/06/24 04:19:24;;;;;;;4.32;2.95;;;22.70;51.90;;;;;;5011658;28;20050;-63
2021/06/24 04:21:50;;;;;;;7.68;3.78;;;22.60;52.20;;;;;;5016878;28;20069;-63
2021/06/24 04:24:15;;;;;;;4.85;2.75;;;22.70;52.20;;;;;;5019772;28;20103;-64
2021/06/24 04:26:41;;;;;;;3.80;3.28;;;22.70;52.10;;;;;;5015231;28;20586;-64
2021/06/24 04:29:07;;;;;;;4.82;3.05;;;22.70;52.00;;;;;;5019989;28;20041;-63
2021/06/24 04:31:33;;;;;;;5.60;2.95;;;22.70;52.00;;;;;;5007061;28;20458;-63
2021/06/24 04:33:58;;;;;;;6.22;3.05;;;22.60;52.00;;;;;;5020664;28;20060;-64
2021/06/24 04:36:24;;;;;;;4.80;3.15;;;22.60;52.10;;;;;;5019350;28;20116;-64
2021/06/24 04:38:50;;;;;;;3.25;2.85;;;22.50;52.30;;;;;;5022168;28;20379;-63
2021/06/24 04:41:15;;;;;;;3.35;2.53;;;22.60;51.90;;;;;;5016757;28;20057;-63
2021/06/24 04:43:41;;;;;;;4.97;2.47;;;22.60;51.50;;;;;;5022690;28;20053;-63
2021/06/24 04:46:06;;;;;;;2.60;2.40;;;22.70;51.30;;;;;;5014025;28;20364;-63
2021/06/24 04:48:32;;;;;;;4.22;2.70;;;22.60;50.90;;;;;;5022144;28;20033;-62
2021/06/24 04:50:59;;;;;;;2.75;2.42;;;22.60;51.20;;;;;;5007089;28;20041;-63
2021/06/24 04:53:24;;;;;;;5.00;3.42;;;22.60;51.30;;;;;;5019903;28;20034;-63
2021/06/24 04:55:50;;;;;;;4.18;2.58;;;22.60;51.10;;;;;;5013274;28;20045;-63
2021/06/24 04:58:16;;;;;;;5.35;3.08;;;22.60;51.40;;;;;;5005650;28;20041;-63
2021/06/24 05:00:41;;;;;;;3.47;3.00;;;22.60;51.30;;;;;;5023669;28;20034;-63
2021/06/24 05:03:10;;;;;;;6.45;3.40;;;22.60;51.50;;;;;;5022284;28;20056;-63
2021/06/24 05:05:37;;;;;;;6.32;3.70;;;22.70;51.60;;;;;;5024390;28;20022;-63
2021/06/24 05:08:10;;;;;;;12.55;3.85;;;22.70;51.30;;;;;;5009346;28;20044;-63
2021/06/24 05:10:36;;;;;;;4.93;3.50;;;22.70;51.30;;;;;;5024644;28;20057;-63
2021/06/24 05:13:02;;;;;;;5.68;4.18;;;22.70;51.20;;;;;;5016215;28;20632;-62
2021/06/24 05:15:27;;;;;;;5.50;3.50;;;22.70;51.30;;;;;;5023971;28;20045;-63
2021/06/24 05:17:53;;;;;;;6.32;3.72;;;22.80;51.80;;;;;;5015326;28;20046;-63
2021/06/24 05:20:18;;;;;;;7.05;3.85;;;22.80;51.70;;;;;;5020838;28;20049;-63
2021/06/24 05:22:44;;;;;;;7.65;4.15;;;22.90;51.60;;;;;;5012190;28;20042;-63
2021/06/24 05:25:10;;;;;;;8.43;4.22;;;22.80;52.20;;;;;;5012294;28;20046;-63
2021/06/24 05:27:36;;;;;;;6.13;3.75;;;22.80;52.10;;;;;;5022920;28;20499;-63
2021/06/24 05:30:03;;;;;;;6.88;4.13;;;22.80;52.00;;;;;;5025115;28;20045;-63
2021/06/24 05:32:28;;;;;;;9.07;3.83;;;22.90;52.10;;;;;;5015460;28;20046;-64
2021/06/24 05:34:54;;;;;;;5.20;4.70;;;22.90;52.10;;;;;;5014403;28;20042;-63
2021/06/24 05:37:20;;;;;;;6.82;4.55;;;22.90;52.10;;;;;;5007715;28;20502;-63
2021/06/24 05:39:46;;;;;;;6.72;4.57;;;23.00;51.80;;;;;;5008104;28;20061;-63
2021/06/24 05:42:11;;;;;;;10.10;5.50;;;23.10;51.60;;;;;;5020359;28;20054;-63
2021/06/24 05:44:37;;;;;;;9.57;4.80;;;23.20;51.50;;;;;;5022277;28;20192;-63
2021/06/24 05:47:03;;;;;;;11.55;4.63;;;23.20;51.60;;;;;;5025682;28;20096;-63
2021/06/24 05:49:28;;;;;;;9.85;4.90;;;23.20;52.00;;;;;;5019239;28;20036;-63
2021/06/24 05:51:55;;;;;;;10.15;5.00;;;23.30;52.10;;;;;;5015513;28;20483;-63
2021/06/24 05:54:20;;;;;;;9.70;5.80;;;23.30;52.10;;;;;;5019813;28;20168;-63
2021/06/24 05:56:46;;;;;;;10.05;5.20;;;23.40;52.10;;;;;;5014763;28;20481;-63
2021/06/24 05:59:12;;;;;;;8.68;5.15;;;23.40;52.10;;;;;;5024060;28;20050;-63
2021/06/24 06:01:43;;;;;;;13.05;6.45;;;23.40;52.50;;;;;;5014004;28;20038;-63
2021/06/24 06:04:09;;;;;;;8.25;5.82;;;23.40;51.70;;;;;;5007514;28;20030;-63
2021/06/24 06:06:35;;;;;;;7.47;5.38;;;23.50;52.00;;;;;;5016252;28;20505;-63
2021/06/24 06:09:01;;;;;;;12.10;6.28;;;23.50;51.90;;;;;;5015408;28;20034;-62
2021/06/24 06:11:26;;;;;;;11.88;5.95;;;23.50;51.90;;;;;;5022959;28;20034;-64
2021/06/24 06:13:52;;;;;;;8.65;5.60;;;23.70;51.80;;;;;;5012214;28;20033;-64
2021/06/24 06:16:17;;;;;;;7.90;6.00;;;23.70;51.70;;;;;;5022665;28;20112;-63
2021/06/24 06:18:43;;;;;;;12.20;6.45;;;23.70;51.50;;;;;;5013597;28;20038;-64
2021/06/24 06:21:09;;;;;;;8.13;6.32;;;23.80;51.40;;;;;;5012522;28;20038;-63
2021/06/24 06:23:34;;;;;;;7.07;6.38;;;23.80;51.00;;;;;;4996073;28;20044;-63
2021/06/24 06:26:00;;;;;;;9.57;5.90;;;23.80;51.10;;;;;;5004002;28;20068;-59
2021/06/24 06:28:26;;;;;;;9.63;6.10;;;23.90;51.10;;;;;;5026376;28;20061;-64
2021/06/24 06:30:54;;;;;;;12.93;5.93;;;23.90;50.70;;;;;;5017105;28;20037;-63
2021/06/24 06:33:21;;;;;;;8.70;6.40;;;24.00;50.40;;;;;;5022430;28;20037;-64
2021/06/24 06:35:47;;;;;;;11.55;7.57;;;23.90;50.10;;;;;;5006818;28;20522;-62
2021/06/24 06:38:14;;;;;;;10.13;5.80;;;24.00;50.30;;;;;;5018162;28;20037;-62
2021/06/24 06:40:40;;;;;;;9.18;5.78;;;24.10;50.50;;;;;;5007544;28;20613;-62
2021/06/24 06:43:06;;;;;;;10.35;5.47;;;24.10;50.00;;;;;;5014879;28;20080;-62
2021/06/24 06:45:33;;;;;;;8.82;5.70;;;24.10;49.60;;;;;;5016546;28;20052;-63
2021/06/24 06:47:59;;;;;;;10.85;5.68;;;24.20;49.30;;;;;;5017534;28;20556;-64
2021/06/24 06:50:25;;;;;;;8.50;4.82;;;24.30;48.80;;;;;;5015372;28;20056;-60
2021/06/24 06:52:50;;;;;;;9.38;5.55;;;24.30;48.00;;;;;;5017871;28;20969;-65
2021/06/24 06:55:16;;;;;;;12.75;6.60;;;24.40;48.40;;;;;;5012538;28;20034;-64
2021/06/24 06:57:42;;;;;;;6.25;4.72;;;24.40;48.20;;;;;;5012132;28;20042;-64
2021/06/24 07:00:09;;;;;;;10.50;5.40;;;24.50;48.00;;;;;;5018368;28;20045;-63
2021/06/24 07:02:36;;;;;;;12.52;5.10;;;24.50;48.20;;;;;;5008152;28;20049;-63
2021/06/24 07:05:01;;;;;;;6.75;5.60;;;24.60;48.40;;;;;;5020115;28;20125;-63
2021/06/24 07:07:27;;;;;;;8.02;5.20;;;24.70;47.90;;;;;;5010097;28;20045;-63
2021/06/24 07:09:55;;;;;;;12.27;5.18;;;24.60;47.70;;;;;;5018900;28;20068;-65
2021/06/24 07:12:21;;;;;;;7.97;4.95;;;24.70;47.80;;;;;;5014876;28;20490;-64
2021/06/24 07:14:47;;;;;;;7.80;5.05;;;24.80;47.80;;;;;;5033836;28;20047;-64
2021/06/24 07:17:13;;;;;;;8.60;5.35;;;24.90;47.40;;;;;;5014540;28;20033;-64
2021/06/24 07:19:39;;;;;;;9.05;5.47;;;24.90;47.40;;;;;;5020004;28;20529;-64
2021/06/24 07:22:05;;;;;;;13.68;5.65;;;24.90;47.30;;;;;;5014106;28;20041;-63
2021/06/24 07:24:30;;;;;;;10.73;4.88;;;25.00;47.30;;;;;;5007455;28;20049;-63
2021/06/24 07:26:56;;;;;;;8.25;4.90;;;25.00;46.60;;;;;;5005983;28;20978;-64
2021/06/24 07:29:22;;;;;;;8.32;5.40;;;25.00;46.60;;;;;;5016515;28;20475;-63
2021/06/24 07:31:47;;;;;;;7.20;5.55;;;25.10;46.70;;;;;;5020926;28;20040;-63
2021/06/24 07:34:13;;;;;;;11.13;4.68;;;25.10;46.40;;;;;;5013950;28;20140;-64
2021/06/24 07:36:39;;;;;;;7.32;4.82;;;25.20;46.20;;;;;;5020200;28;20049;-63
2021/06/24 07:39:05;;;;;;;14.15;5.45;;;25.20;46.00;;;;;;5010212;28;20048;-63
2021/06/24 07:41:31;;;;;;;9.02;4.78;;;25.20;45.70;;;;;;5005770;28;20034;-64
2021/06/24 07:43:57;;;;;;;7.15;4.00;;;25.40;45.70;;;;;;5008014;28;20620;-63
2021/06/24 07:46:26;;;;;;;5.65;5.15;;;25.50;45.30;;;;;;5007761;28;20042;-63
2021/06/24 07:48:52;;;;;;;8.07;4.20;;;25.40;45.60;;;;;;5006579;28;20080;-63
2021/06/24 07:51:18;;;;;;;5.60;4.32;;;25.50;45.30;;;;;;5016033;28;20718;-64
2021/06/24 07:53:44;;;;;;;11.38;4.40;;;25.50;45.90;;;;;;5011061;28;20061;-63
2021/06/24 07:56:13;;;;;;;7.25;4.90;;;25.50;46.00;;;;;;5019006;28;20061;-63
2021/06/24 07:58:39;;;;;;;7.35;4.72;;;25.60;46.00;;;;;;5006048;28;20568;-63
2021/06/24 08:01:06;;;;;;;7.63;5.32;;;25.60;46.20;;;;;;5017062;28;20045;-63
2021/06/24 08:03:32;;;;;;;7.22;5.70;;;25.70;46.30;;;;;;5018137;28;20415;-64
2021/06/24 08:05:58;;;;;;;9.20;5.20;;;25.80;45.90;;;;;;5015204;28;20041;-63
2021/06/24 08:08:24;;;;;;;5.55;4.90;;;25.80;45.80;;;;;;5013450;28;20048;-64
2021/06/24 08:10:50;;;;;;;7.60;5.65;;;25.80;46.10;;;;;;5019997;28;20403;-61
2021/06/24 08:13:16;;;;;;;6.90;5.05;;;25.80;46.00;;;;;;5016474;28;20040;-60
2021/06/24 08:15:42;;;;;;;10.93;5.75;;;25.90;45.60;;;;;;5017670;28;20046;-63
2021/06/24 08:18:08;;;;;;;7.72;5.63;;;25.80;45.50;;;;;;5021315;28;20472;-63
2021/06/24 08:20:34;;;;;;;8.40;5.43;;;25.80;45.40;;;;;;5013989;28;20057;-62
2021/06/24 08:22:59;;;;;;;6.75;4.75;;;26.00;46.10;;;;;;5008552;28;20042;-64
2021/06/24 08:25:25;;;;;;;9.80;5.47;;;26.00;45.90;;;;;;5006483;28;20041;-64
2021/06/24 08:27:51;;;;;;;8.95;6.05;;;26.00;45.90;;;;;;5021718;28;20136;-64
2021/06/24 08:30:18;;;;;;;8.90;5.53;;;26.00;45.10;;;;;;5019283;28;20042;-64
2021/06/24 08:32:44;;;;;;;8.80;6.25;;;25.90;45.30;;;;;;5010946;28;22828;-64
2021/06/24 08:35:11;;;;;;;8.63;5.57;;;26.10;44.90;;;;;;5005678;28;20133;-64
2021/06/24 08:37:38;;;;;;;6.10;5.18;;;26.00;44.90;;;;;;5008594;28;20044;-64
2021/06/24 08:40:09;;;;;;;7.68;4.65;;;26.00;45.00;;;;;;5020335;28;20115;-64
2021/06/24 08:42:35;;;;;;;11.23;5.20;;;26.10;45.30;;;;;;5017501;28;20525;-64
2021/06/24 08:45:05;;;;;;;14.52;5.15;;;26.20;45.00;;;;;;5011524;28;20046;-65
2021/06/24 08:47:32;;;;;;;7.93;4.82;;;26.30;44.20;;;;;;5017242;28;20042;-64
2021/06/24 08:49:59;;;;;;;7.10;3.97;;;26.20;43.90;;;;;;5015884;28;20053;-65
2021/06/24 08:52:26;;;;;;;7.45;5.30;;;26.20;45.10;;;;;;5020798;28;20136;-64
2021/06/24 08:54:52;;;;;;;5.07;3.63;;;26.30;44.20;;;;;;5005743;28;20034;-64
2021/06/24 08:57:19;;;;;;;5.40;3.67;;;26.40;44.10;;;;;;5015564;28;20520;-63
2021/06/24 08:59:44;;;;;;;5.65;3.30;;;26.50;44.00;;;;;;5020956;28;20038;-63
2021/06/24 09:02:12;;;;;;;7.18;3.72;;;26.50;44.00;;;;;;5019085;28;20399;-63
2021/06/24 09:04:40;;;;;;;6.25;4.20;;;26.70;42.90;;;;;;5018834;28;20040;-63
2021/06/24 09:07:12;;;;;;;5.30;3.70;;;26.60;43.70;;;;;;5015995;28;20033;-64
2021/06/24 09:09:48;;;;;;;7.57;3.70;;;26.70;43.20;;;;;;5002851;28;20038;-64
2021/06/24 09:12:13;;;;;;;5.18;2.33;;;26.80;42.50;;;;;;5001284;28;20092;-64
2021/06/24 09:14:43;;;;;;;4.10;2.97;;;26.90;40.50;;;;;;5016612;28;20640;-63
2021/06/24 09:17:11;;;;;;;5.20;2.45;;;26.80;40.50;;;;;;5011651;28;20034;-63
2021/06/24 09:19:42;;;;;;;2.55;1.92;;;26.90;36.90;;;;;;5018519;28;20126;-64
2021/06/24 09:22:11;;;;;;;3.88;2.50;;;27.00;38.30;;;;;;5014404;28;20029;-64
2021/06/24 09:24:41;;;;;;;5.65;2.40;;;27.00;37.90;;;;;;5017723;28;20075;-64
2021/06/24 09:27:19;;;;;;;4.93;2.30;;;27.00;39.60;;;;;;5006815;28;20053;-63
2021/06/24 09:29:59;;;;;;;6.18;2.40;;;27.00;38.30;;;;;;5013747;28;20038;-64
2021/06/24 09:32:35;;;;;;;4.72;1.90;;;27.10;37.80;;;;;;5013901;28;20030;-64
2021/06/24 09:35:03;;;;;;;4.43;2.38;;;27.10;37.70;;;;;;5015513;28;20092;-64
2021/06/24 09:37:49;;;;;;;6.18;3.05;;;27.10;38.20;;;;;;5007683;28;20121;-65
2021/06/24 09:40:15;;;;;;;3.95;2.47;;;27.20;38.00;;;;;;4984423;28;20045;-63
2021/06/24 09:42:41;;;;;;;3.00;2.00;;;27.30;36.30;;;;;;5010718;28;20038;-63
2021/06/24 09:45:08;;;;;;;6.13;3.10;;;27.30;36.20;;;;;;5015154;28;20076;-63
2021/06/24 09:47:34;;;;;;;3.70;2.72;;;27.30;34.40;;;;;;5011139;28;20063;-63
2021/06/24 09:50:04;;;;;;;3.65;2.00;;;27.40;34.00;;;;;;5015981;28;20598;-63
2021/06/24 09:52:30;;;;;;;4.72;2.42;;;27.50;34.30;;;;;;5011052;28;20118;-64
2021/06/24 09:55:30;;;;;;;3.67;1.70;;;27.60;35.70;;;;;;5011025;28;20038;-63
2021/06/24 09:58:11;;;;;;;3.47;2.00;;;27.70;33.60;;;;;;4990186;28;20037;-64
2021/06/24 10:00:36;;;;;;;4.72;2.10;;;27.60;32.70;;;;;;5023980;28;20537;-63
2021/06/24 10:03:11;;;;;;;4.07;2.28;;;27.70;34.30;;;;;;5021607;28;20054;-63
2021/06/24 10:05:39;;;;;;;2.63;1.80;;;27.80;32.90;;;;;;5022277;28;20117;-62
2021/06/24 10:08:05;;;;;;;3.05;2.00;;;27.80;33.10;;;;;;5003945;28;20125;-65
2021/06/24 10:10:31;;;;;;;4.18;2.15;;;27.90;33.10;;;;;;5021371;28;20056;-63
2021/06/24 10:12:57;;;;;;;4.47;2.92;;;28.00;33.40;;;;;;5022298;28;20128;-64
2021/06/24 10:15:24;;;;;;;2.05;1.85;;;28.10;33.50;;;;;;5020765;28;20578;-63
2021/06/24 10:17:54;;;;;;;3.95;2.00;;;28.20;33.20;;;;;;5013629;28;20117;-63
2021/06/24 10:20:20;;;;;;;3.58;2.42;;;28.30;32.10;;;;;;5010784;28;20052;-67
2021/06/24 10:22:56;;;;;;;6.20;2.10;;;28.50;32.50;;;;;;5016693;28;20038;-68
2021/06/24 10:25:23;;;;;;;3.45;2.08;;;28.50;31.70;;;;;;5014516;28;20060;-70
2021/06/24 10:27:56;;;;;;;4.90;1.98;;;28.60;31.90;;;;;;5021982;28;20029;-70
2021/06/24 10:30:23;;;;;;;5.40;2.05;;;28.60;30.90;;;;;;5012858;28;20128;-80
2021/06/24 10:32:59;;;;;;;2.58;1.80;;;28.70;31.10;;;;;;5023367;28;20034;-68
2021/06/24 10:35:36;;;;;;;7.55;2.13;;;28.80;31.80;;;;;;5020404;28;20553;-72
2021/06/24 10:38:03;;;;;;;4.15;1.88;;;28.90;31.60;;;;;;5024813;28;20092;-71
2021/06/24 10:40:34;;;;;;;5.13;1.73;;;28.80;30.90;;;;;;5020310;28;20053;-68
2021/06/24 10:43:06;;;;;;;2.97;1.83;;;28.90;30.80;;;;;;5012847;28;20037;-69
2021/06/24 10:45:33;;;;;;;3.03;2.03;;;28.90;31.20;;;;;;5019137;28;20058;-68
2021/06/24 10:48:18;;;;;;;3.55;1.75;;;29.30;31.40;;;;;;5012299;28;20048;-79
2021/06/24 10:50:44;;;;;;;2.28;1.85;;;29.40;30.70;;;;;;4996473;28;20085;-68
2021/06/24 10:53:10;;;;;;;2.42;1.58;;;29.70;30.70;;;;;;5019394;28;20129;-76
2021/06/24 10:55:37;;;;;;;2.40;1.60;;;30.20;29.90;;;;;;5020351;28;20521;-73
2021/06/24 10:58:10;;;;;;;2.40;2.08;;;30.60;28.40;;;;;;5014678;28;20121;-67
2021/06/24 11:00:51;;;;;;;5.32;2.10;;;31.70;27.00;;;;;;5012313;28;20510;-67
2021/06/24 11:03:30;;;;;;;3.28;2.33;;;32.70;26.50;;;;;;5012462;28;20037;-72
2021/06/24 11:06:17;;;;;;;4.53;2.33;;;34.10;25.90;;;;;;5004350;28;20045;-69
2021/06/24 11:08:44;;;;;;;3.25;2.10;;;35.20;25.00;;;;;;4994958;28;20050;-68
2021/06/24 11:11:13;;;;;;;3.00;2.42;;;36.10;24.00;;;;;;5019998;28;20487;-71
2021/06/24 11:13:47;;;;;;;3.65;2.53;;;37.20;23.20;;;;;;5015621;28;20052;-69
2021/06/24 11:16:16;;;;;;;3.38;2.05;;;37.00;22.90;;;;;;5008540;28;20036;-69
2021/06/24 11:18:42;;;;;;;4.43;2.33;;;35.90;22.70;;;;;;5008306;28;20531;-75
2021/06/24 11:21:11;;;;;;;2.67;2.20;;;35.80;23.90;;;;;;5016793;28;20183;-66
2021/06/24 11:23:40;;;;;;;2.05;1.88;;;34.40;24.00;;;;;;5016456;28;20054;-65
2021/06/24 11:26:09;;;;;;;6.20;2.67;;;33.80;24.40;;;;;;5012883;28;20038;-67
2021/06/24 11:28:47;;;;;;;5.32;2.45;;;34.00;24.80;;;;;;5015527;28;20491;-64
2021/06/24 11:31:19;;;;;;;4.32;2.45;;;34.30;24.90;;;;;;5010582;28;20134;-66
2021/06/24 11:34:08;;;;;;;3.40;2.33;;;35.00;24.40;;;;;;5024150;28;20105;-66
2021/06/24 11:36:34;;;;;;;2.40;2.20;;;35.80;23.90;;;;;;5020931;28;20053;-68
2021/06/24 11:39:00;;;;;;;2.72;2.40;;;34.70;24.80;;;;;;5011517;28;20038;-70
2021/06/24 11:41:25;;;;;;;2.85;2.63;;;34.50;24.60;;;;;;5006495;28;20054;-69
2021/06/24 11:44:03;;;;;;;3.05;2.50;;;34.20;25.50;;;;;;4996062;28;20042;-74
2021/06/24 11:46:36;;;;;;;3.05;2.50;;;33.90;25.20;;;;;;5007240;28;20085;-73
2021/06/24 12:05:13;;;;;;;2.60;2.40;;;35.20;24.10;;;;;;5018338;28;20558;-73
2021/06/24 12:07:38;;;;;;;2.38;2.28;;;35.90;23.50;;;;;;5022012;28;20083;-75
2021/06/24 12:10:05;;;;;;;3.28;2.70;;;36.50;23.70;;;;;;5021190;28;20033;-79
2021/06/24 12:12:32;;;;;;;3.20;2.33;;;37.20;22.60;;;;;;5005086;28;20049;-73
2021/06/24 12:15:01;;;;;;;3.95;2.40;;;;;;;;;;5011855;28;20046;-74
2021/06/24 12:17:30;;;;;;;3.63;2.83;;;38.00;36.40;;;;;;5021244;28;20040;-73
2021/06/24 12:20:00;;;;;;;4.32;2.22;;;37.60;28.20;;;;;;5017254;28;20049;-74
2021/06/24 12:22:34;;;;;;;6.07;2.75;;;37.90;25.50;;;;;;5017101;28;20044;-73
2021/06/24 12:25:02;;;;;;;3.38;2.45;;;37.90;24.20;;;;;;5019407;28;20049;-74
2021/06/24 12:27:33;;;;;;;3.35;2.80;;;38.10;24.30;;;;;;5024009;28;20136;-73
2021/06/24 12:30:23;;;;;;;3.33;2.85;;;37.90;24.40;;;;;;5009351;28;20116;-73
2021/06/24 12:32:54;;;;;;;2.67;2.30;;;38.10;23.80;;;;;;4964050;28;20192;-74
2021/06/24 12:35:30;;;;;;;3.15;2.67;;;38.20;24.10;;;;;;5029943;28;20391;-75
2021/06/24 12:37:59;;;;;;;2.83;2.45;;;38.70;23.90;;;;;;5006358;28;20129;-75
2021/06/24 12:40:31;;;;;;;5.32;4.03;;;39.50;22.90;;;;;;5005101;28;20054;-74
2021/06/24 12:42:58;;;;;;;2.85;2.60;;;39.40;20.10;;;;;;5022083;28;20482;-74
2021/06/24 12:45:27;;;;;;;2.53;2.33;;;40.20;19.40;;;;;;5016161;28;20044;-75
2021/06/24 12:47:55;;;;;;;4.53;2.67;;;41.40;19.30;;;;;;5024565;28;20128;-73
2021/06/24 12:50:35;;;;;;;3.20;2.38;;;42.60;18.90;;;;;;5018005;28;20041;-74
2021/06/24 12:53:02;;;;;;;4.32;2.65;;;42.50;18.80;;;;;;5017124;28;20084;-75
2021/06/24 12:55:47;;;;;;;3.67;2.20;;;41.70;20.20;;;;;;5018418;28;20041;-74
2021/06/24 12:58:13;;;;;;;3.03;2.47;;;41.10;19.90;;;;;;4991869;28;20515;-75
2021/06/24 13:00:48;;;;;;;2.80;2.60;;;39.50;19.70;;;;;;5012314;28;20117;-74
2021/06/24 13:03:13;;;;;;;7.57;2.83;;;38.90;21.20;;;;;;5017545;28;20058;-75